KLM806 EDDW-EDDF
Flight info
| Callsign | KLM806 |
|---|---|
| Flight time | N/A |
| Altitude | 24000 |
| Route | WIMCI1M/09 WIMCI Y804 PIROT T152 KERAX KERA5A EDDF/25R |
| Aircraft | B738/M-V/N |
Departure
| Time | 2026-05-07 19:13 |
|---|---|
| Airport | Bremen Airport (EDDW) |
Arrival
| Time | N/A |
|---|---|
| Airport | Frankfurt Main Airport (EDDF) |
| Time | Latitude | Longitude | Altitude | Speed | Heading |
|---|---|---|---|---|---|
| 2026-05-07 19:07 | 53.05086 | 8.78516 | 21 ft | 0 kts | 320° |
| 2026-05-07 19:07 | 53.05088 | 8.78513 | 21 ft | 0 kts | 320° |
| 2026-05-07 19:08 | 53.05091 | 8.78510 | 21 ft | 4 kts | 320° |
| 2026-05-07 19:09 | 53.05140 | 8.78397 | 21 ft | 15 kts | 300° |
| 2026-05-07 19:09 | 53.05180 | 8.78242 | 21 ft | 15 kts | 287° |
| 2026-05-07 19:09 | 53.05186 | 8.78074 | 21 ft | 14 kts | 247° |
| 2026-05-07 19:09 | 53.05139 | 8.77933 | 21 ft | 13 kts | 229° |
| 2026-05-07 19:10 | 53.05080 | 8.77823 | 21 ft | 13 kts | 227° |
| 2026-05-07 19:10 | 53.05016 | 8.77710 | 21 ft | 17 kts | 226° |
| 2026-05-07 19:10 | 53.04919 | 8.77545 | 21 ft | 20 kts | 219° |
| 2026-05-07 19:10 | 53.04792 | 8.77456 | 21 ft | 19 kts | 187° |
| 2026-05-07 19:11 | 53.04686 | 8.77477 | 21 ft | 13 kts | 147° |
| 2026-05-07 19:11 | 53.04656 | 8.77602 | 21 ft | 11 kts | 83° |
| 2026-05-07 19:11 | 53.04660 | 8.77671 | 21 ft | 5 kts | 84° |
| 2026-05-07 19:11 | 53.04663 | 8.77727 | 21 ft | 5 kts | 84° |
| 2026-05-07 19:12 | 53.04667 | 8.77782 | 21 ft | 5 kts | 86° |
| 2026-05-07 19:12 | 53.04671 | 8.77929 | 21 ft | 27 kts | 90° |
| 2026-05-07 19:12 | 53.04684 | 8.78680 | 21 ft | 102 kts | 87° |
| 2026-05-07 19:12 | 53.04721 | 8.80223 | 106 ft | 155 kts | 88° |
| 2026-05-07 19:13 | 53.04772 | 8.81980 | 990 ft | 146 kts | 89° |
| 2026-05-07 19:13 | 53.04794 | 8.83086 | 1585 ft | 145 kts | 89° |
| 2026-05-07 19:13 | 53.04825 | 8.84826 | 2160 ft | 158 kts | 90° |
| 2026-05-07 19:13 | 53.04546 | 8.87423 | 2708 ft | 188 kts | 111° |
| 2026-05-07 19:14 | 53.04104 | 8.88776 | 2956 ft | 207 kts | 124° |
| 2026-05-07 19:14 | 53.03034 | 8.90550 | 3283 ft | 236 kts | 143° |
| 2026-05-07 19:14 | 53.01490 | 8.91726 | 3776 ft | 254 kts | 163° |
| 2026-05-07 19:14 | 52.99689 | 8.92087 | 4018 ft | 268 kts | 175° |
| 2026-05-07 19:15 | 52.97818 | 8.92124 | 4115 ft | 270 kts | 178° |
| 2026-05-07 19:15 | 52.95928 | 8.92108 | 4798 ft | 271 kts | 177° |
| 2026-05-07 19:15 | 52.94061 | 8.92156 | 5840 ft | 268 kts | 176° |
| 2026-05-07 19:15 | 52.92240 | 8.92251 | 6691 ft | 271 kts | 176° |
| 2026-05-07 19:16 | 52.90363 | 8.92380 | 7491 ft | 275 kts | 175° |
| 2026-05-07 19:16 | 52.88434 | 8.92528 | 8291 ft | 280 kts | 175° |
| 2026-05-07 19:16 | 52.86475 | 8.92688 | 9076 ft | 284 kts | 176° |
| 2026-05-07 19:16 | 52.84488 | 8.92856 | 9869 ft | 287 kts | 176° |
| 2026-05-07 19:17 | 52.82510 | 8.93027 | 10626 ft | 291 kts | 176° |
| 2026-05-07 19:17 | 52.80429 | 8.93208 | 11249 ft | 302 kts | 176° |
| 2026-05-07 19:17 | 52.78266 | 8.93396 | 11585 ft | 321 kts | 177° |
| 2026-05-07 19:17 | 52.75962 | 8.93598 | 11866 ft | 341 kts | 177° |
| 2026-05-07 19:18 | 52.73523 | 8.93812 | 12143 ft | 360 kts | 177° |
| 2026-05-07 19:18 | 52.70976 | 8.94054 | 12628 ft | 370 kts | 175° |
| 2026-05-07 19:18 | 52.68409 | 8.94637 | 13335 ft | 374 kts | 169° |
| 2026-05-07 19:18 | 52.65870 | 8.95673 | 14017 ft | 379 kts | 165° |
| 2026-05-07 19:19 | 52.63371 | 8.96943 | 14685 ft | 382 kts | 163° |
| 2026-05-07 19:19 | 52.60823 | 8.98280 | 15339 ft | 386 kts | 163° |
| 2026-05-07 19:19 | 52.58244 | 8.99592 | 15978 ft | 389 kts | 163° |
| 2026-05-07 19:19 | 52.55643 | 9.00891 | 16607 ft | 393 kts | 164° |
| 2026-05-07 19:20 | 52.53011 | 9.02197 | 17214 ft | 396 kts | 164° |
| 2026-05-07 19:20 | 52.50361 | 9.03505 | 17801 ft | 400 kts | 164° |
| 2026-05-07 19:20 | 52.47681 | 9.04825 | 18383 ft | 403 kts | 164° |
| 2026-05-07 19:20 | 52.44986 | 9.06152 | 18944 ft | 406 kts | 164° |
| 2026-05-07 19:21 | 52.42263 | 9.07490 | 19494 ft | 410 kts | 164° |
| 2026-05-07 19:21 | 52.39522 | 9.08837 | 20033 ft | 413 kts | 164° |
| 2026-05-07 19:21 | 52.36747 | 9.10139 | 20559 ft | 416 kts | 166° |
| 2026-05-07 19:21 | 52.33938 | 9.11345 | 21067 ft | 419 kts | 166° |
| 2026-05-07 19:22 | 52.31111 | 9.12558 | 21553 ft | 422 kts | 166° |
| 2026-05-07 19:22 | 52.28259 | 9.13787 | 22045 ft | 425 kts | 166° |
| 2026-05-07 19:22 | 52.25402 | 9.15022 | 22652 ft | 424 kts | 166° |
| 2026-05-07 19:22 | 52.22559 | 9.16251 | 23307 ft | 421 kts | 166° |
| 2026-05-07 19:23 | 52.19731 | 9.17474 | 23824 ft | 421 kts | 166° |
| 2026-05-07 19:23 | 52.16932 | 9.18683 | 24062 ft | 422 kts | 166° |
| 2026-05-07 19:23 | 52.14088 | 9.19910 | 24102 ft | 422 kts | 166° |
| 2026-05-07 19:23 | 52.11258 | 9.21131 | 24107 ft | 420 kts | 166° |
| 2026-05-07 19:24 | 52.08434 | 9.22347 | 24111 ft | 419 kts | 166° |
| 2026-05-07 19:24 | 52.05588 | 9.23326 | 24112 ft | 418 kts | 172° |
| 2026-05-07 19:24 | 52.02701 | 9.23854 | 24112 ft | 417 kts | 177° |
| 2026-05-07 19:24 | 51.99796 | 9.24077 | 24112 ft | 417 kts | 179° |
| 2026-05-07 19:25 | 51.96899 | 9.24180 | 24112 ft | 416 kts | 180° |
| 2026-05-07 19:25 | 51.94003 | 9.24289 | 24112 ft | 416 kts | 180° |
| 2026-05-07 19:25 | 51.91105 | 9.24410 | 24112 ft | 416 kts | 180° |
| 2026-05-07 19:25 | 51.88207 | 9.24539 | 24112 ft | 416 kts | 179° |
| 2026-05-07 19:26 | 51.85348 | 9.24671 | 24112 ft | 416 kts | 179° |
| 2026-05-07 19:26 | 51.82454 | 9.24807 | 24112 ft | 416 kts | 179° |
| 2026-05-07 19:26 | 51.79560 | 9.24943 | 24112 ft | 416 kts | 179° |
| 2026-05-07 19:26 | 51.76660 | 9.25082 | 24112 ft | 416 kts | 179° |
| 2026-05-07 19:27 | 51.73765 | 9.25223 | 24112 ft | 416 kts | 179° |
| 2026-05-07 19:27 | 51.70839 | 9.25366 | 24112 ft | 416 kts | 179° |
| 2026-05-07 19:27 | 51.67976 | 9.25503 | 24110 ft | 412 kts | 179° |
| 2026-05-07 19:27 | 51.65157 | 9.25638 | 24109 ft | 399 kts | 179° |
| 2026-05-07 19:28 | 51.62411 | 9.25769 | 24110 ft | 391 kts | 179° |
| 2026-05-07 19:28 | 51.59715 | 9.25898 | 24110 ft | 386 kts | 179° |
| 2026-05-07 19:28 | 51.57029 | 9.26025 | 24111 ft | 385 kts | 179° |
| 2026-05-07 19:28 | 51.54346 | 9.26153 | 24111 ft | 386 kts | 179° |
| 2026-05-07 19:29 | 51.51670 | 9.26066 | 24101 ft | 384 kts | 190° |
| 2026-05-07 19:29 | 51.49137 | 9.24823 | 24106 ft | 382 kts | 207° |
| 2026-05-07 19:29 | 51.46999 | 9.22430 | 24106 ft | 379 kts | 225° |
| 2026-05-07 19:29 | 51.45419 | 9.19073 | 24105 ft | 377 kts | 243° |
| 2026-05-07 19:30 | 51.44517 | 9.15143 | 24106 ft | 377 kts | 257° |
| 2026-05-07 19:30 | 51.44142 | 9.10992 | 24112 ft | 377 kts | 263° |
| 2026-05-07 19:30 | 51.43795 | 9.06825 | 24107 ft | 377 kts | 262° |
| 2026-05-07 19:30 | 51.43450 | 9.02660 | 24104 ft | 377 kts | 262° |
| 2026-05-07 19:31 | 51.43049 | 8.98511 | 24097 ft | 377 kts | 256° |
| 2026-05-07 19:31 | 51.42040 | 8.94650 | 24099 ft | 377 kts | 238° |
| 2026-05-07 19:31 | 51.40316 | 8.91483 | 24103 ft | 379 kts | 220° |
| 2026-05-07 19:31 | 51.38048 | 8.89329 | 24103 ft | 381 kts | 202° |
| 2026-05-07 19:32 | 51.35463 | 8.88403 | 24103 ft | 384 kts | 185° |
| 2026-05-07 19:32 | 51.32792 | 8.88708 | 24109 ft | 386 kts | 172° |
| 2026-05-07 19:32 | 51.30187 | 8.89776 | 24105 ft | 388 kts | 162° |
| 2026-05-07 19:32 | 51.27741 | 8.91477 | 24106 ft | 389 kts | 154° |
| 2026-05-07 19:33 | 51.25309 | 8.93513 | 24104 ft | 390 kts | 153° |
| 2026-05-07 19:33 | 51.22917 | 8.95536 | 24104 ft | 390 kts | 153° |
| 2026-05-07 19:33 | 51.20516 | 8.97563 | 24104 ft | 390 kts | 153° |
| 2026-05-07 19:33 | 51.18155 | 8.99551 | 24104 ft | 390 kts | 153° |
| 2026-05-07 19:34 | 51.15757 | 9.01567 | 23945 ft | 390 kts | 153° |
| 2026-05-07 19:34 | 51.13359 | 9.03581 | 23746 ft | 388 kts | 153° |
| 2026-05-07 19:34 | 51.10972 | 9.05581 | 23547 ft | 387 kts | 154° |
| 2026-05-07 19:34 | 51.10166 | 9.06257 | 23479 ft | 386 kts | 154° |